createdAt,value
2018-08-18T00:02:26.803Z,4.77
2018-08-18T00:07:30.971Z,4.33
2018-08-18T00:12:34.175Z,4.17
2018-08-18T00:17:38.626Z,4.60
2018-08-18T00:22:41.874Z,4.20
2018-08-18T00:27:45.102Z,4.77
2018-08-18T00:32:48.438Z,4.63
2018-08-18T00:37:51.672Z,4.33
2018-08-18T00:42:54.902Z,4.43
2018-08-18T00:47:58.201Z,4.27
2018-08-18T00:53:01.567Z,4.13
2018-08-18T00:58:15.716Z,4.63
2018-08-18T01:03:18.937Z,4.50
2018-08-18T01:08:22.155Z,5.27
2018-08-18T01:13:36.673Z,5.03
2018-08-18T01:18:39.898Z,5.70
2018-08-18T01:23:43.297Z,6.37
2018-08-18T01:28:47.289Z,6.07
2018-08-18T01:33:51.618Z,6.07
2018-08-18T01:38:54.862Z,6.30
2018-08-18T01:44:09.704Z,5.67
2018-08-18T01:49:35.615Z,6.03
2018-08-18T01:54:38.857Z,6.30
2018-08-18T01:59:43.342Z,6.70
2018-08-18T02:04:47.136Z,6.80
2018-08-18T02:09:50.370Z,6.53
2018-08-18T02:14:54.271Z,6.73
2018-08-18T02:19:57.737Z,7.00
2018-08-18T02:25:01.087Z,6.63
2018-08-18T02:30:23.679Z,6.77
2018-08-18T02:35:27.024Z,7.07
2018-08-18T02:40:30.301Z,7.27
2018-08-18T02:45:33.550Z,6.13
2018-08-18T02:50:37.342Z,6.67
2018-08-18T02:55:40.543Z,6.43
2018-08-18T03:00:44.042Z,6.10
2018-08-18T03:05:47.256Z,6.77
2018-08-18T03:10:51.550Z,7.50
2018-08-18T03:15:56.148Z,6.90
2018-08-18T03:20:59.953Z,7.53
2018-08-18T03:26:10.935Z,7.77
2018-08-18T03:31:14.130Z,7.73
2018-08-18T03:36:26.490Z,7.90
2018-08-18T03:41:30.218Z,7.80
2018-08-18T03:46:33.483Z,7.80
2018-08-18T03:51:43.166Z,7.80
2018-08-18T03:56:46.789Z,8.57
2018-08-18T04:02:05.040Z,8.47
2018-08-18T04:07:11.386Z,8.60
2018-08-18T04:12:14.595Z,8.20
2018-08-18T04:17:30.238Z,8.00
2018-08-18T04:22:33.525Z,8.33
2018-08-18T04:27:40.466Z,8.60
2018-08-18T04:33:00.065Z,8.93
2018-08-18T04:38:13.598Z,7.73
2018-08-18T04:43:16.893Z,9.17
2018-08-18T04:48:28.430Z,8.60
2018-08-18T04:53:36.085Z,9.27
2018-08-18T04:58:39.357Z,9.03
2018-08-18T05:03:58.037Z,9.40
2018-08-18T05:09:02.349Z,9.47
2018-08-18T05:14:05.945Z,9.63
2018-08-18T05:19:09.227Z,9.73
2018-08-18T05:24:22.538Z,10.23
2018-08-18T05:29:33.798Z,10.50
2018-08-18T05:34:37.039Z,10.20
2018-08-18T05:39:44.871Z,10.30
2018-08-18T05:44:50.474Z,9.73
2018-08-18T05:49:56.243Z,9.37
2018-08-18T05:55:00.789Z,10.43
2018-08-18T06:00:15.458Z,9.87
2018-08-18T06:05:20.023Z,9.50
2018-08-18T06:10:25.857Z,9.30
2018-08-18T06:15:30.346Z,10.20
2018-08-18T06:20:35.071Z,10.87
2018-08-18T06:25:43.068Z,11.27
2018-08-18T06:30:46.330Z,12.75
2018-08-18T06:35:51.910Z,11.10
2018-08-18T06:40:58.388Z,10.87
2018-08-18T06:46:05.692Z,10.60
2018-08-18T06:51:14.409Z,12.00
2018-08-18T06:56:17.990Z,13.63
2018-08-18T07:01:22.577Z,12.73
2018-08-18T07:06:26.831Z,10.80
2018-08-18T07:11:38.542Z,11.30
2018-08-18T07:16:42.854Z,11.17
2018-08-18T07:21:46.890Z,10.70
2018-08-18T07:26:57.375Z,11.07
2018-08-18T07:32:03.923Z,10.07
2018-08-18T07:37:07.208Z,9.60
2018-08-18T07:42:10.647Z,8.60
2018-08-18T07:47:14.908Z,8.33
2018-08-18T07:52:23.165Z,8.00
2018-08-18T07:57:43.725Z,6.60
2018-08-18T08:02:54.310Z,6.93
2018-08-18T08:08:05.611Z,5.03
2018-08-18T08:13:13.850Z,2.77
2018-08-18T08:18:17.173Z,3.10
2018-08-18T08:23:25.216Z,1.87
2018-08-18T08:28:29.598Z,2.50
2018-08-18T08:33:37.838Z,1.53
2018-08-18T08:38:51.755Z,1.60
2018-08-18T08:43:56.637Z,1.60
2018-08-18T08:49:01.909Z,1.23
2018-08-18T08:54:05.838Z,1.30
2018-08-18T08:59:11.334Z,1.47
2018-08-18T09:04:16.032Z,1.07
2018-08-18T09:09:22.617Z,1.77
2018-08-18T09:14:30.644Z,1.93
2018-08-18T09:19:36.135Z,1.70
2018-08-18T09:24:39.478Z,2.17
2018-08-18T09:29:44.515Z,2.10
2018-08-18T09:34:52.786Z,2.60
2018-08-18T09:40:00.174Z,2.40
2018-08-18T09:45:08.710Z,2.53
2018-08-18T09:50:11.926Z,2.93
2018-08-18T09:55:25.720Z,3.80
2018-08-18T10:00:40.614Z,2.90
2018-08-18T10:05:44.307Z,3.30
2018-08-18T10:10:50.332Z,3.90
2018-08-18T10:16:03.256Z,3.03
2018-08-18T10:21:09.707Z,3.30
2018-08-18T10:26:13.338Z,3.00
2018-08-18T10:31:19.162Z,2.27
2018-08-18T10:36:23.847Z,2.63
2018-08-18T10:41:28.678Z,2.73
2018-08-18T10:46:31.934Z,3.00
2018-08-18T10:51:48.183Z,2.97
2018-08-18T10:56:52.074Z,2.63
2018-08-18T11:02:03.819Z,2.90
2018-08-18T11:07:08.224Z,3.80
2018-08-18T11:12:14.697Z,3.13
2018-08-18T11:17:18.828Z,2.73
2018-08-18T11:23:20.715Z,3.70
2018-08-18T11:28:24.246Z,2.90
2018-08-18T11:33:43.981Z,3.23
2018-08-18T11:38:52.233Z,3.43
2018-08-18T11:43:55.446Z,3.07
2018-08-18T11:48:59.069Z,2.57
2018-08-18T11:54:04.866Z,4.10
2018-08-18T11:59:11.772Z,3.20
2018-08-18T12:04:15.826Z,2.97
2018-08-18T12:09:24.090Z,3.60
2018-08-18T12:14:27.391Z,4.03
2018-08-18T12:19:30.623Z,3.63
2018-08-18T12:24:33.838Z,3.40
2018-08-18T12:29:37.585Z,3.62
2018-08-18T12:34:40.691Z,4.07
2018-08-18T12:39:43.910Z,4.60
2018-08-18T12:44:47.922Z,2.70
2018-08-18T12:49:52.368Z,2.63
2018-08-18T12:54:55.585Z,3.30
2018-08-18T12:59:59.670Z,3.50
2018-08-18T13:05:02.862Z,3.80
2018-08-18T13:10:14.930Z,3.10
2018-08-18T13:15:25.651Z,2.00
2018-08-18T13:20:32.183Z,2.50
2018-08-18T13:25:36.521Z,3.67
2018-08-18T13:30:39.743Z,2.80
2018-08-18T13:35:49.673Z,2.43
2018-08-18T13:40:54.250Z,2.77
2018-08-18T13:46:01.833Z,2.27
2018-08-18T13:51:05.166Z,2.87
2018-08-18T13:56:08.363Z,2.43
2018-08-18T14:01:24.942Z,2.17
2018-08-18T14:06:28.278Z,1.63
2018-08-18T14:11:33.782Z,1.77
2018-08-18T14:16:39.166Z,1.90
2018-08-18T14:21:43.398Z,2.43
2018-08-18T14:26:51.884Z,2.03
2018-08-18T14:31:55.531Z,2.30
2018-08-18T14:37:07.312Z,1.60
2018-08-18T14:42:10.740Z,1.50
2018-08-18T14:47:13.955Z,1.60
2018-08-18T14:52:17.388Z,1.77
2018-08-18T14:57:20.626Z,1.40
2018-08-18T15:02:23.906Z,1.43
2018-08-18T15:07:29.982Z,1.13
2018-08-18T15:12:34.075Z,1.00
2018-08-18T15:17:37.603Z,1.03
2018-08-18T15:22:43.104Z,1.00
2018-08-18T15:27:46.279Z,1.00
2018-08-18T15:32:50.547Z,1.10
2018-08-18T15:37:53.825Z,1.33
2018-08-18T15:42:58.274Z,0.90
2018-08-18T15:48:03.365Z,1.03
2018-08-18T15:53:06.708Z,2.13
2018-08-18T15:58:09.962Z,1.20
2018-08-18T16:03:15.200Z,1.20
2018-08-18T16:08:19.398Z,1.37
2018-08-18T16:13:22.691Z,0.97
2018-08-18T16:18:25.965Z,0.87
2018-08-18T16:23:30.546Z,1.10
2018-08-18T16:28:36.935Z,1.30
2018-08-18T16:33:40.470Z,1.27
2018-08-18T16:38:43.666Z,1.00
2018-08-18T16:43:46.915Z,0.93
2018-08-18T16:48:50.837Z,1.20
2018-08-18T16:53:54.166Z,1.30
2018-08-18T16:58:58.894Z,1.40
2018-08-18T17:04:03.214Z,1.27
2018-08-18T17:09:09.818Z,1.33
2018-08-18T17:14:20.427Z,1.20
2018-08-18T17:19:24.171Z,2.00
2018-08-18T17:24:31.718Z,1.63
2018-08-18T17:29:38.348Z,3.77
2018-08-18T17:34:41.598Z,1.30
2018-08-18T17:39:44.861Z,1.53
2018-08-18T17:44:49.834Z,1.47
2018-08-18T17:49:54.632Z,1.37
2018-08-18T17:55:10.850Z,1.50
2018-08-18T18:00:19.019Z,1.67
2018-08-18T18:05:25.485Z,4.30
2018-08-18T18:10:32.807Z,1.50
2018-08-18T18:15:37.329Z,1.47
2018-08-18T18:20:47.950Z,1.87
2018-08-18T18:25:52.273Z,2.30
2018-08-18T18:30:55.489Z,2.00
2018-08-18T18:36:04.631Z,2.07
2018-08-18T18:41:07.913Z,1.93
2018-08-18T18:46:13.321Z,9.90
2018-08-18T18:51:16.459Z,8.20
2018-08-18T18:56:19.834Z,7.10
2018-08-18T19:01:23.917Z,10.43
2018-08-18T19:06:28.570Z,8.20
2018-08-18T19:11:31.910Z,5.53
2018-08-18T19:16:35.186Z,4.33
2018-08-18T19:21:38.430Z,4.40
2018-08-18T19:26:46.777Z,3.23
2018-08-18T19:31:51.578Z,2.70
2018-08-18T19:37:06.982Z,2.83
2018-08-18T19:42:16.839Z,3.37
2018-08-18T19:47:27.463Z,2.77
2018-08-18T19:52:30.724Z,3.13
2018-08-18T19:57:37.236Z,2.70
2018-08-18T20:02:59.081Z,3.23
2018-08-18T20:08:02.322Z,3.30
2018-08-18T20:13:20.958Z,3.73
2018-08-18T20:18:29.938Z,3.60
2018-08-18T20:23:33.183Z,3.60
2018-08-18T20:28:36.466Z,3.50
2018-08-18T20:33:40.078Z,3.53
2018-08-18T20:38:56.798Z,3.87
2018-08-18T20:44:00.059Z,3.80
2018-08-18T20:49:03.436Z,4.43
2018-08-18T20:54:06.688Z,4.37
2018-08-18T20:59:09.906Z,5.00
2018-08-18T21:04:13.122Z,5.27
2018-08-18T21:09:27.896Z,5.30
2018-08-18T21:14:31.225Z,4.80
2018-08-18T21:19:36.040Z,4.77
2018-08-18T21:24:39.646Z,4.53
2018-08-18T21:29:42.850Z,5.30
2018-08-18T21:34:50.411Z,4.80
2018-08-18T21:39:53.711Z,4.90
2018-08-18T21:44:56.978Z,5.67
2018-08-18T21:50:00.199Z,5.07
2018-08-18T21:55:03.725Z,5.30
2018-08-18T22:00:06.934Z,5.30
2018-08-18T22:05:12.666Z,5.70
2018-08-18T22:10:15.924Z,6.23
2018-08-18T22:15:21.125Z,6.23
2018-08-18T22:20:24.324Z,5.93
2018-08-18T22:25:27.574Z,5.40
2018-08-18T22:30:31.028Z,6.23
2018-08-18T22:35:34.230Z,5.53
2018-08-18T22:40:37.517Z,6.40
2018-08-18T22:45:40.707Z,6.10
2018-08-18T22:50:43.999Z,5.73
2018-08-18T22:55:47.234Z,6.33
2018-08-18T23:00:53.798Z,6.37
2018-08-18T23:05:57.869Z,6.70
2018-08-18T23:11:01.123Z,6.13
2018-08-18T23:16:04.434Z,6.60
2018-08-18T23:21:10.140Z,7.30
2018-08-18T23:26:13.658Z,6.47
2018-08-18T23:31:16.884Z,6.33
2018-08-18T23:36:20.074Z,7.63
2018-08-18T23:41:23.378Z,7.20
2018-08-18T23:46:26.566Z,7.80
2018-08-18T23:51:36.024Z,8.07
2018-08-18T23:56:39.224Z,7.70
